< < Back
Terminal Aerodrome Forecast


Current Version              Previous Versions:   1  2  3  4  5  6  7  8  9  

Terminal Aerodrome Forecast

256
FTUS42 KCHS 060255 AAC
TAFCHS
TAF AMD
KCHS 060255Z 0603/0624 01015G23KT 6SM -RADZ BR BKN006 OVC011
      TEMPO 0603/0606 BKN004
     FM061400 02012G18KT P6SM SCT010 BKN025=

Latest METAR

548
SAUS80 KWBC 060700 RRA
MTRCHS
METAR KCHS 060656Z 03018G27KT 10SM -DZ BKN009 OVC014 04/03 A3027 RMK AO2
PK WND 03027/0655 RAB01E17DZB17 SLP250 P0000 T00440028


USA.gov is the U.S. government's official web portal to all federal, state and local government web resources and services.